Time;durP1;ratioP1;P1;durP2;ratioP2;P2;SDS_P1;SDS_P2;PMS_P1;PMS_P2;Temp;Humidity;BMP_temperature;BMP_pressure;BME280_temperature;BME280_humidity;BME280_pressure;Samples;Min_cycle;Max_cycle;Signal;HPM_P1;HPM_P2
2023/07/24 00:01:30;;;;;;;4.10;1.70;;;18.60;99.90;;;;;;5018352;28;20040;-70
2023/07/24 00:03:56;;;;;;;4.07;1.98;;;18.60;99.90;;;;;;5001479;28;20038;-71
2023/07/24 00:06:21;;;;;;;3.88;1.90;;;18.50;99.90;;;;;;5019500;28;20034;-70
2023/07/24 00:08:47;;;;;;;3.10;1.45;;;18.50;99.90;;;;;;5020098;28;20029;-70
2023/07/24 00:11:12;;;;;;;2.97;1.50;;;18.50;99.90;;;;;;5001888;28;20022;-70
2023/07/24 00:13:38;;;;;;;3.53;1.90;;;18.50;99.90;;;;;;5002453;28;20092;-71
2023/07/24 00:16:10;;;;;;;4.95;1.80;;;18.40;99.90;;;;;;5021691;28;20119;-70
2023/07/24 00:18:36;;;;;;;2.58;1.20;;;18.40;99.90;;;;;;5014012;28;20574;-72
2023/07/24 00:21:02;;;;;;;2.78;1.55;;;18.40;99.90;;;;;;5021945;28;20048;-70
2023/07/24 00:23:27;;;;;;;3.15;1.33;;;18.30;99.90;;;;;;5019933;28;20410;-69
2023/07/24 00:25:54;;;;;;;2.58;1.75;;;18.30;99.90;;;;;;5018591;28;20033;-71
2023/07/24 00:28:19;;;;;;;2.08;1.27;;;18.30;99.90;;;;;;5018984;28;20042;-72
2023/07/24 00:30:45;;;;;;;1.88;1.13;;;18.30;99.90;;;;;;5019779;28;20037;-70
2023/07/24 00:33:10;;;;;;;2.65;1.55;;;18.30;99.90;;;;;;5001249;28;20032;-69
2023/07/24 00:35:36;;;;;;;3.45;1.48;;;18.30;99.90;;;;;;5016500;28;20045;-72
2023/07/24 00:38:01;;;;;;;3.60;1.20;;;18.20;99.90;;;;;;5021196;28;20422;-70
2023/07/24 00:40:27;;;;;;;3.50;1.70;;;18.20;99.90;;;;;;5012518;28;20056;-71
2023/07/24 00:42:52;;;;;;;6.00;1.70;;;18.20;99.90;;;;;;5018686;28;20095;-71
2023/07/24 00:45:19;;;;;;;2.80;1.42;;;18.20;99.90;;;;;;5017104;28;20100;-70
2023/07/24 00:47:45;;;;;;;2.42;1.70;;;18.20;99.90;;;;;;5001268;28;20037;-72
2023/07/24 00:50:12;;;;;;;3.47;1.42;;;18.10;99.90;;;;;;5018390;28;20041;-71
2023/07/24 00:52:38;;;;;;;2.80;1.58;;;18.10;99.90;;;;;;5017522;28;20029;-70
2023/07/24 00:55:03;;;;;;;2.92;1.70;;;18.10;99.90;;;;;;5000734;28;20045;-72
2023/07/24 00:57:29;;;;;;;3.13;1.50;;;18.10;99.90;;;;;;5016314;28;20466;-70
2023/07/24 00:59:55;;;;;;;4.15;1.50;;;18.10;99.90;;;;;;5020626;28;20053;-70
2023/07/24 01:02:21;;;;;;;1.98;1.30;;;18.10;99.90;;;;;;5016665;28;20033;-71
2023/07/24 01:04:47;;;;;;;4.10;2.33;;;18.10;99.90;;;;;;5019155;28;20065;-70
2023/07/24 01:07:12;;;;;;;2.47;1.33;;;18.00;99.90;;;;;;5019241;28;20116;-70
2023/07/24 01:09:38;;;;;;;2.10;1.10;;;18.10;99.90;;;;;;5017070;28;20658;-70
2023/07/24 01:12:13;;;;;;;2.97;1.35;;;18.10;99.90;;;;;;5002446;28;20038;-72
2023/07/24 01:14:58;;;;;;;2.70;1.70;;;18.10;99.90;;;;;;5017164;28;20042;-71
2023/07/24 01:17:26;;;;;;;3.20;1.55;;;18.10;99.90;;;;;;5015113;28;20120;-70
2023/07/24 01:20:03;;;;;;;5.60;1.77;;;18.10;99.90;;;;;;5020109;28;20048;-72
2023/07/24 01:22:29;;;;;;;3.88;1.50;;;18.10;99.90;;;;;;5012170;28;20617;-72
2023/07/24 01:25:06;;;;;;;2.75;1.55;;;18.10;99.90;;;;;;5020214;28;20099;-71
2023/07/24 01:27:31;;;;;;;12.85;2.53;;;18.10;99.90;;;;;;5012467;28;20030;-70
2023/07/24 01:29:57;;;;;;;2.15;1.25;;;18.00;99.90;;;;;;5020245;28;20036;-71
2023/07/24 01:32:23;;;;;;;4.82;1.40;;;18.00;99.90;;;;;;5016000;28;20026;-70
2023/07/24 01:34:49;;;;;;;2.42;1.50;;;18.00;99.90;;;;;;5016645;28;20038;-71
2023/07/24 01:37:16;;;;;;;2.90;1.20;;;18.00;99.90;;;;;;5014223;28;20141;-71
2023/07/24 01:39:43;;;;;;;3.10;1.35;;;18.00;99.90;;;;;;5017594;28;20034;-71
2023/07/24 01:42:09;;;;;;;3.42;1.85;;;18.00;99.90;;;;;;5017509;28;20092;-72
2023/07/24 01:44:34;;;;;;;3.22;1.55;;;18.00;99.90;;;;;;5148849;23;20053;-71
2023/07/24 01:47:00;;;;;;;2.47;1.38;;;18.00;99.90;;;;;;5034631;28;20021;-70
2023/07/24 01:49:26;;;;;;;2.55;1.40;;;18.00;99.90;;;;;;5020325;28;20086;-71
2023/07/24 01:51:51;;;;;;;3.95;1.35;;;18.00;99.90;;;;;;5036660;28;20134;-71
2023/07/24 01:54:17;;;;;;;2.70;1.30;;;18.00;99.90;;;;;;5024811;28;20077;-69
2023/07/24 01:56:43;;;;;;;2.55;1.35;;;17.90;99.90;;;;;;5017303;28;20026;-70
2023/07/24 01:59:09;;;;;;;3.60;1.70;;;17.90;99.90;;;;;;5002922;28;20041;-69
2023/07/24 02:01:34;;;;;;;2.58;1.55;;;17.90;99.90;;;;;;5002768;28;20487;-68
2023/07/24 02:04:00;;;;;;;2.10;1.23;;;18.00;99.90;;;;;;4998955;28;20120;-70
2023/07/24 02:06:26;;;;;;;2.38;1.25;;;17.90;99.90;;;;;;5014947;28;20542;-72
2023/07/24 02:08:51;;;;;;;3.50;1.38;;;18.00;99.90;;;;;;5019587;28;20117;-69
2023/07/24 02:11:17;;;;;;;2.92;1.60;;;18.00;99.90;;;;;;5016517;28;20394;-70
2023/07/24 02:13:46;;;;;;;3.15;1.83;;;17.90;99.90;;;;;;5021757;28;20551;-68
2023/07/24 02:16:15;;;;;;;3.08;1.55;;;18.00;99.90;;;;;;5000384;28;20041;-68
2023/07/24 02:18:42;;;;;;;2.88;1.40;;;17.90;99.90;;;;;;5002765;28;20398;-70
2023/07/24 02:21:08;;;;;;;4.85;1.60;;;17.90;99.90;;;;;;5016557;28;20522;-71
2023/07/24 02:23:34;;;;;;;2.55;1.10;;;18.00;99.90;;;;;;5015892;28;20073;-71
2023/07/24 02:26:00;;;;;;;3.20;1.40;;;17.90;99.90;;;;;;5019521;28;20516;-70
2023/07/24 02:28:25;;;;;;;2.20;1.33;;;17.90;99.90;;;;;;4997340;28;20041;-70
2023/07/24 02:30:51;;;;;;;1.48;0.82;;;17.90;99.90;;;;;;4998488;28;20112;-70
2023/07/24 02:33:17;;;;;;;3.10;1.70;;;18.00;99.90;;;;;;5017826;28;20099;-71
2023/07/24 02:35:43;;;;;;;3.33;1.60;;;18.00;99.90;;;;;;5018937;28;20041;-71
2023/07/24 02:38:09;;;;;;;2.78;1.50;;;18.00;99.90;;;;;;5000250;28;20052;-69
2023/07/24 02:40:35;;;;;;;3.70;1.40;;;18.00;99.90;;;;;;4999399;28;20043;-71
2023/07/24 02:43:01;;;;;;;1.90;1.10;;;18.00;99.90;;;;;;5019237;28;20493;-70
2023/07/24 02:45:27;;;;;;;4.10;1.60;;;18.00;99.90;;;;;;5017835;28;20041;-69
2023/07/24 02:47:52;;;;;;;2.67;1.30;;;18.00;99.90;;;;;;5015652;28;20038;-71
2023/07/24 02:50:18;;;;;;;3.50;1.70;;;17.90;99.90;;;;;;5018222;28;20041;-69
2023/07/24 02:52:43;;;;;;;5.18;1.40;;;18.00;99.90;;;;;;5014316;28;20041;-71
2023/07/24 02:55:09;;;;;;;2.75;1.45;;;17.90;99.90;;;;;;5021353;28;20034;-70
2023/07/24 02:57:34;;;;;;;4.97;1.90;;;17.90;99.90;;;;;;5017531;28;20061;-71
2023/07/24 03:00:00;;;;;;;2.90;1.25;;;17.90;99.90;;;;;;5018663;28;20037;-70
2023/07/24 03:02:25;;;;;;;3.30;1.70;;;18.00;99.90;;;;;;5021806;28;20033;-71
2023/07/24 03:04:51;;;;;;;3.60;1.50;;;18.00;99.90;;;;;;5015623;28;20038;-71
2023/07/24 03:07:17;;;;;;;2.70;1.40;;;17.90;99.90;;;;;;5001626;28;20030;-71
2023/07/24 03:09:42;;;;;;;4.15;1.90;;;17.90;99.90;;;;;;5015217;28;20037;-69
2023/07/24 03:12:08;;;;;;;5.80;1.85;;;17.90;99.90;;;;;;5017026;28;20037;-71
2023/07/24 03:14:34;;;;;;;6.25;1.88;;;17.90;99.90;;;;;;5020157;28;20037;-71
2023/07/24 03:16:59;;;;;;;3.55;1.75;;;17.90;99.90;;;;;;5015346;28;20086;-70
2023/07/24 03:19:25;;;;;;;4.15;2.00;;;17.90;99.90;;;;;;5014708;28;20037;-69
2023/07/24 03:21:50;;;;;;;4.85;2.40;;;17.90;99.90;;;;;;5014926;28;20140;-69
2023/07/24 03:24:17;;;;;;;4.80;2.10;;;17.90;99.90;;;;;;5018313;28;20479;-70
2023/07/24 03:26:42;;;;;;;5.82;2.22;;;17.90;99.90;;;;;;5003313;28;20084;-70
2023/07/24 03:29:08;;;;;;;3.28;2.00;;;17.80;99.90;;;;;;5002820;28;20099;-72
2023/07/24 03:31:34;;;;;;;4.03;1.83;;;17.80;99.90;;;;;;5000457;28;20689;-70
2023/07/24 03:33:59;;;;;;;4.40;2.13;;;17.80;99.90;;;;;;5019811;28;20030;-70
2023/07/24 03:36:25;;;;;;;5.80;2.15;;;17.80;99.90;;;;;;5003705;28;20410;-70
2023/07/24 03:38:50;;;;;;;2.97;1.80;;;17.80;99.90;;;;;;5005222;28;20061;-71
2023/07/24 03:41:16;;;;;;;3.75;1.70;;;17.80;99.90;;;;;;5026460;28;20211;-71
2023/07/24 03:43:41;;;;;;;5.82;2.00;;;17.70;99.90;;;;;;5021704;28;20037;-70
2023/07/24 03:46:07;;;;;;;3.42;1.77;;;17.70;99.90;;;;;;5002580;28;20409;-71
2023/07/24 03:48:34;;;;;;;4.72;1.67;;;17.70;99.90;;;;;;5019444;28;20100;-71
2023/07/24 03:51:00;;;;;;;4.82;2.47;;;17.70;99.90;;;;;;5021582;28;20029;-70
2023/07/24 03:53:27;;;;;;;5.78;2.00;;;17.60;99.90;;;;;;5004002;28;20048;-69
2023/07/24 03:55:53;;;;;;;3.97;1.52;;;17.60;99.90;;;;;;5018728;28;20477;-69
2023/07/24 03:58:18;;;;;;;5.93;2.10;;;17.60;99.90;;;;;;5019518;28;20062;-70
2023/07/24 04:00:44;;;;;;;4.18;1.67;;;17.50;99.90;;;;;;5021126;28;20125;-70
2023/07/24 04:03:10;;;;;;;4.68;1.95;;;17.50;99.90;;;;;;5021784;28;20487;-70
2023/07/24 04:05:36;;;;;;;4.13;2.00;;;17.50;99.90;;;;;;5019277;28;20041;-73
2023/07/24 04:08:02;;;;;;;4.40;2.47;;;17.50;99.90;;;;;;5020038;28;20037;-70
2023/07/24 04:10:28;;;;;;;3.67;2.17;;;17.50;99.90;;;;;;5017261;28;20034;-70
2023/07/24 04:12:54;;;;;;;6.32;2.00;;;17.60;99.90;;;;;;5021715;28;20039;-69
2023/07/24 04:15:20;;;;;;;2.95;1.85;;;17.60;99.90;;;;;;5000600;28;20054;-69
2023/07/24 04:17:45;;;;;;;3.85;2.10;;;17.60;99.90;;;;;;5000872;28;20057;-70
2023/07/24 04:20:11;;;;;;;6.57;1.70;;;17.60;99.90;;;;;;5021305;28;20064;-70
2023/07/24 04:22:37;;;;;;;4.05;2.00;;;17.60;99.90;;;;;;5000958;28;20033;-70
2023/07/24 04:25:03;;;;;;;4.18;2.28;;;17.60;99.90;;;;;;5018571;28;20034;-70
2023/07/24 04:27:28;;;;;;;4.28;2.42;;;17.60;99.90;;;;;;5017412;28;20049;-70
2023/07/24 04:29:54;;;;;;;6.13;2.00;;;17.60;99.90;;;;;;5005027;28;20463;-71
2023/07/24 04:32:19;;;;;;;3.85;1.98;;;17.60;99.90;;;;;;5017738;28;20050;-69
2023/07/24 04:34:45;;;;;;;3.05;1.85;;;17.60;99.90;;;;;;5017599;28;20061;-70
2023/07/24 04:37:11;;;;;;;4.57;2.03;;;17.60;99.90;;;;;;5000284;28;20042;-69
2023/07/24 04:39:39;;;;;;;3.47;2.03;;;17.60;99.90;;;;;;5002248;28;20030;-70
2023/07/24 04:42:05;;;;;;;3.90;2.20;;;17.60;99.90;;;;;;5019900;28;20401;-69
2023/07/24 04:44:31;;;;;;;3.40;1.90;;;17.60;99.90;;;;;;5017159;28;20037;-71
2023/07/24 04:46:57;;;;;;;5.25;1.73;;;17.60;99.90;;;;;;5019372;28;20113;-71
2023/07/24 04:49:24;;;;;;;8.45;2.70;;;17.60;99.90;;;;;;5020686;28;20117;-70
2023/07/24 04:51:50;;;;;;;3.95;2.50;;;17.60;99.90;;;;;;5022349;28;20402;-69
2023/07/24 04:54:15;;;;;;;5.13;2.50;;;17.60;99.90;;;;;;4998176;28;20120;-69
2023/07/24 04:56:41;;;;;;;5.65;2.15;;;17.60;99.90;;;;;;5004633;28;20041;-69
2023/07/24 04:59:06;;;;;;;6.90;2.58;;;17.60;99.90;;;;;;5008053;28;20041;-71
2023/07/24 05:01:32;;;;;;;6.63;2.10;;;17.60;99.90;;;;;;5020883;28;20061;-70
2023/07/24 05:03:57;;;;;;;7.15;2.30;;;17.60;99.90;;;;;;5018115;28;20045;-71
2023/07/24 05:06:23;;;;;;;5.80;2.78;;;17.60;99.90;;;;;;5005504;28;20035;-70
2023/07/24 05:08:49;;;;;;;4.18;2.20;;;17.70;99.90;;;;;;5022042;28;20033;-69
2023/07/24 05:11:14;;;;;;;5.82;2.20;;;17.70;99.90;;;;;;5022474;28;20053;-70
2023/07/24 05:13:40;;;;;;;6.75;2.88;;;17.70;99.90;;;;;;5019153;28;20038;-70
2023/07/24 05:16:05;;;;;;;6.70;2.55;;;17.70;99.90;;;;;;5022974;28;20033;-70
2023/07/24 05:18:31;;;;;;;4.82;2.42;;;17.80;99.90;;;;;;5017492;28;20502;-71
2023/07/24 05:20:56;;;;;;;4.88;2.60;;;17.80;99.90;;;;;;5005306;28;20076;-70
2023/07/24 05:23:22;;;;;;;4.85;2.63;;;17.90;99.90;;;;;;5019347;28;20148;-70
2023/07/24 05:25:59;;;;;;;4.05;2.00;;;17.90;99.90;;;;;;5001562;28;20037;-70
2023/07/24 05:28:29;;;;;;;5.25;2.22;;;17.90;99.90;;;;;;5021832;28;20041;-71
2023/07/24 05:30:55;;;;;;;7.05;2.67;;;18.00;99.90;;;;;;5003882;28;20068;-70
2023/07/24 05:33:21;;;;;;;5.10;2.08;;;18.10;99.90;;;;;;5002457;28;20072;-70
2023/07/24 05:35:49;;;;;;;5.57;1.90;;;18.10;99.90;;;;;;5021148;28;20038;-70
2023/07/24 05:38:14;;;;;;;2.92;1.60;;;18.10;99.90;;;;;;5024444;28;20025;-70
2023/07/24 05:40:40;;;;;;;3.78;2.00;;;18.10;99.90;;;;;;5022625;28;20052;-70
2023/07/24 05:43:05;;;;;;;3.30;1.52;;;18.20;99.90;;;;;;5020107;28;20041;-69
2023/07/24 05:45:31;;;;;;;5.78;2.58;;;18.10;99.90;;;;;;5018439;28;20405;-69
2023/07/24 05:47:57;;;;;;;10.45;1.67;;;18.20;99.90;;;;;;5008531;28;20029;-70
2023/07/24 05:50:22;;;;;;;3.97;1.80;;;18.20;99.90;;;;;;5004091;28;20040;-70
2023/07/24 05:52:48;;;;;;;5.60;2.05;;;18.30;99.90;;;;;;5021110;28;20030;-71
2023/07/24 05:55:13;;;;;;;4.85;1.50;;;18.50;99.90;;;;;;5024817;28;20513;-70
2023/07/24 05:57:39;;;;;;;7.28;2.05;;;18.70;99.90;;;;;;5023330;28;20410;-71
2023/07/24 06:00:06;;;;;;;5.85;1.95;;;18.80;99.90;;;;;;5021029;28;20037;-70
2023/07/24 06:02:32;;;;;;;3.72;1.85;;;19.00;99.90;;;;;;5023958;28;20044;-69
2023/07/24 06:04:58;;;;;;;4.63;1.90;;;19.00;99.90;;;;;;5004315;28;20037;-70
2023/07/24 06:07:24;;;;;;;4.75;1.48;;;19.10;99.90;;;;;;5021029;28;20045;-69
2023/07/24 06:09:50;;;;;;;6.35;1.90;;;19.00;99.90;;;;;;5024971;28;20053;-70
2023/07/24 06:12:15;;;;;;;6.07;1.80;;;18.90;99.90;;;;;;5020256;28;20050;-70
2023/07/24 06:14:41;;;;;;;6.18;1.73;;;18.90;99.90;;;;;;5020391;28;20060;-70
2023/07/24 06:17:07;;;;;;;8.25;2.03;;;19.10;99.90;;;;;;5019346;28;20064;-71
2023/07/24 06:19:32;;;;;;;5.93;1.75;;;19.20;99.90;;;;;;5019259;28;20038;-71
2023/07/24 06:21:58;;;;;;;4.40;2.13;;;19.50;99.90;;;;;;5005598;28;20029;-70
2023/07/24 06:24:23;;;;;;;4.13;1.67;;;19.60;99.90;;;;;;5020395;28;20131;-70
2023/07/24 06:26:50;;;;;;;7.38;2.20;;;19.80;99.90;;;;;;5024789;28;20033;-70
2023/07/24 06:29:15;;;;;;;3.03;1.02;;;20.00;99.90;;;;;;5022128;28;20038;-70
2023/07/24 06:31:41;;;;;;;5.20;1.63;;;20.20;99.90;;;;;;5020670;28;20033;-70
2023/07/24 06:34:06;;;;;;;5.82;1.65;;;20.20;99.90;;;;;;5020364;28;20038;-71
2023/07/24 06:36:32;;;;;;;4.15;1.60;;;20.20;99.90;;;;;;5021555;28;20041;-71
2023/07/24 06:38:58;;;;;;;4.60;1.55;;;20.20;99.90;;;;;;5020653;28;20037;-69
2023/07/24 06:41:23;;;;;;;5.65;1.73;;;20.00;99.90;;;;;;5001226;28;20041;-69
2023/07/24 06:43:49;;;;;;;5.38;1.60;;;20.00;99.90;;;;;;5022626;28;20036;-69
2023/07/24 06:46:15;;;;;;;3.83;1.40;;;19.90;99.90;;;;;;5021260;28;20036;-69
2023/07/24 06:48:41;;;;;;;6.20;1.55;;;19.80;99.90;;;;;;5021677;28;20037;-70
2023/07/24 06:51:07;;;;;;;6.00;1.92;;;19.80;99.90;;;;;;5009631;28;20141;-70
2023/07/24 06:53:33;;;;;;;4.07;1.48;;;19.80;99.90;;;;;;5022050;28;20551;-68
2023/07/24 06:55:58;;;;;;;4.88;2.08;;;19.80;99.90;;;;;;5003985;28;20041;-69
2023/07/24 06:58:24;;;;;;;3.15;1.67;;;19.80;99.90;;;;;;5024620;28;20120;-70
2023/07/24 07:00:49;;;;;;;7.97;2.08;;;19.80;99.90;;;;;;5029039;28;20087;-70
2023/07/24 07:03:15;;;;;;;7.50;1.92;;;19.90;99.90;;;;;;5031378;28;20039;-70
2023/07/24 07:05:41;;;;;;;3.85;1.52;;;19.90;99.90;;;;;;5029013;28;20128;-71
2023/07/24 07:08:06;;;;;;;3.50;1.75;;;19.90;99.90;;;;;;5012038;28;20041;-71
2023/07/24 07:10:32;;;;;;;7.43;2.10;;;19.90;99.90;;;;;;5008906;28;20030;-71
2023/07/24 07:12:57;;;;;;;2.83;1.50;;;19.90;99.90;;;;;;5028798;28;20036;-70
2023/07/24 07:15:23;;;;;;;4.47;2.00;;;19.90;99.90;;;;;;5026470;28;20621;-71
2023/07/24 07:17:48;;;;;;;5.35;1.75;;;20.10;99.90;;;;;;5010103;28;20033;-70
2023/07/24 07:20:14;;;;;;;3.97;1.20;;;20.30;99.90;;;;;;5011924;28;20041;-69
2023/07/24 07:22:40;;;;;;;7.90;1.30;;;20.70;99.90;;;;;;5025834;28;20033;-69
2023/07/24 07:25:05;;;;;;;3.17;1.30;;;20.90;99.90;;;;;;5012947;28;20092;-68
2023/07/24 07:27:31;;;;;;;4.13;1.63;;;21.10;99.90;;;;;;5026864;28;20038;-69
2023/07/24 07:29:56;;;;;;;5.13;1.67;;;21.00;99.90;;;;;;5007816;28;20045;-69
2023/07/24 07:32:22;;;;;;;4.53;1.17;;;21.10;99.90;;;;;;5029312;28;20037;-71
2023/07/24 07:34:48;;;;;;;4.20;1.67;;;21.50;99.90;;;;;;5007143;28;20112;-70
2023/07/24 07:37:13;;;;;;;5.65;1.77;;;22.30;99.90;;;;;;5010112;28;20041;-71
2023/07/24 07:39:39;;;;;;;3.00;1.02;;;22.70;99.90;;;;;;5028950;28;20457;-70
2023/07/24 07:42:05;;;;;;;2.90;1.00;;;23.10;99.90;;;;;;5024025;28;20364;-71
2023/07/24 07:47:06;;;;;;;4.63;1.65;;;23.20;99.90;;;;;;6147534;22;20016;-71
2023/07/24 07:49:31;;;;;;;5.05;1.27;;;23.00;99.90;;;;;;5009845;28;20493;-71
2023/07/24 07:51:57;;;;;;;4.18;1.60;;;22.70;99.90;;;;;;5008427;28;20780;-70
2023/07/24 07:54:22;;;;;;;3.70;1.45;;;22.30;99.90;;;;;;5007971;28;20052;-70
2023/07/24 07:56:48;;;;;;;4.80;1.80;;;22.00;99.90;;;;;;5010600;28;20026;-70
2023/07/24 07:59:13;;;;;;;4.90;1.58;;;21.70;99.90;;;;;;5011102;28;20479;-72
2023/07/24 08:01:39;;;;;;;5.45;2.00;;;21.50;99.90;;;;;;5009391;28;20390;-72
2023/07/24 08:04:05;;;;;;;6.22;1.77;;;21.30;99.90;;;;;;5010553;28;20052;-71
2023/07/24 08:06:30;;;;;;;5.43;1.98;;;21.40;99.90;;;;;;5009939;28;20112;-70
2023/07/24 08:08:56;;;;;;;3.42;1.90;;;21.40;99.90;;;;;;5008922;28;20038;-72
2023/07/24 08:11:21;;;;;;;4.78;2.13;;;21.40;99.90;;;;;;5009525;28;20692;-71
2023/07/24 08:13:47;;;;;;;6.80;1.63;;;21.40;99.90;;;;;;5004772;28;20428;-71
2023/07/24 08:16:18;;;;;;;5.07;2.00;;;21.60;99.90;;;;;;5007762;28;20038;-71
2023/07/24 08:18:47;;;;;;;5.95;2.10;;;21.70;99.90;;;;;;5005056;28;20059;-71
2023/07/24 08:21:14;;;;;;;4.50;1.90;;;21.80;99.90;;;;;;5007366;28;20037;-71
2023/07/24 08:23:40;;;;;;;6.95;1.77;;;22.00;99.90;;;;;;5004606;28;20037;-70
2023/07/24 08:26:06;;;;;;;9.18;2.13;;;22.00;99.90;;;;;;5007383;28;20034;-71
2023/07/24 08:28:33;;;;;;;6.43;1.95;;;21.90;99.90;;;;;;5004470;28;20121;-71
2023/07/24 08:31:01;;;;;;;4.38;1.85;;;21.80;99.90;;;;;;5007764;28;20779;-70
2023/07/24 08:33:26;;;;;;;6.78;1.80;;;21.90;99.90;;;;;;5005992;28;20057;-72
2023/07/24 08:36:08;;;;;;;4.43;1.92;;;22.10;99.90;;;;;;5005673;28;20041;-70
2023/07/24 08:38:35;;;;;;;3.90;2.08;;;22.30;99.90;;;;;;5004570;28;20091;-72
2023/07/24 08:41:06;;;;;;;2.72;1.70;;;22.40;99.90;;;;;;5005835;28;20410;-71
2023/07/24 08:43:33;;;;;;;4.53;1.60;;;22.50;99.90;;;;;;5003760;28;20044;-72
2023/07/24 08:46:00;;;;;;;6.07;1.83;;;22.40;99.90;;;;;;5006588;28;20368;-71
2023/07/24 08:48:37;;;;;;;5.68;1.85;;;22.30;99.90;;;;;;5006451;28;20575;-70
2023/07/24 08:51:09;;;;;;;4.30;1.77;;;22.00;99.90;;;;;;5004461;28;20033;-70
2023/07/24 08:53:37;;;;;;;6.38;2.03;;;21.70;99.90;;;;;;5005630;28;20034;-71
2023/07/24 08:56:04;;;;;;;5.57;1.73;;;21.50;99.90;;;;;;5004258;28;20042;-70
2023/07/24 08:58:30;;;;;;;5.72;1.65;;;21.40;99.90;;;;;;5005352;28;20038;-72
2023/07/24 09:01:00;;;;;;;4.97;2.60;;;21.20;99.90;;;;;;5005447;28;20033;-72
2023/07/24 09:03:25;;;;;;;9.85;3.20;;;21.10;99.90;;;;;;5005783;28;20038;-70
2023/07/24 09:05:51;;;;;;;4.53;1.60;;;21.00;99.90;;;;;;5005025;28;20049;-70
2023/07/24 09:08:27;;;;;;;6.25;2.47;;;21.10;99.90;;;;;;5006640;28;20034;-71
2023/07/24 09:10:53;;;;;;;5.70;1.85;;;21.10;99.90;;;;;;5005673;28;20077;-71
2023/07/24 09:13:19;;;;;;;5.10;1.80;;;21.30;99.90;;;;;;5005838;28;20124;-70
2023/07/24 09:15:44;;;;;;;5.97;2.47;;;21.40;99.90;;;;;;5003999;28;20046;-69
2023/07/24 09:18:11;;;;;;;4.35;2.15;;;21.50;99.90;;;;;;5006308;28;20791;-72
2023/07/24 09:20:41;;;;;;;8.00;2.00;;;21.60;99.90;;;;;;5005041;28;20040;-71
2023/07/24 09:23:08;;;;;;;4.97;2.00;;;21.60;99.90;;;;;;5001072;28;20034;-71
2023/07/24 09:25:35;;;;;;;7.63;2.33;;;21.50;99.90;;;;;;5000917;28;20038;-72
2023/07/24 09:28:08;;;;;;;5.40;1.88;;;21.50;99.90;;;;;;5001046;28;20038;-72
2023/07/24 09:30:34;;;;;;;7.07;1.55;;;21.50;99.90;;;;;;4989659;28;20040;-73
2023/07/24 09:32:59;;;;;;;5.45;1.85;;;21.40;99.90;;;;;;4992079;28;20038;-71
2023/07/24 09:35:27;;;;;;;4.28;1.20;;;21.50;99.90;;;;;;4999365;28;20116;-70
2023/07/24 09:38:03;;;;;;;4.30;2.05;;;21.40;99.90;;;;;;5000703;28;20042;-71
2023/07/24 09:40:36;;;;;;;3.35;1.02;;;21.50;99.90;;;;;;5000626;28;20053;-71
2023/07/24 09:43:02;;;;;;;4.57;1.67;;;21.70;99.90;;;;;;5001856;28;20056;-71
2023/07/24 09:45:28;;;;;;;5.72;1.60;;;22.00;99.90;;;;;;5003665;28;20048;-73
2023/07/24 09:47:56;;;;;;;3.22;1.40;;;22.20;99.90;;;;;;5003272;28;20858;-71
2023/07/24 09:50:23;;;;;;;7.43;1.70;;;22.30;99.90;;;;;;5001459;28;20045;-72
2023/07/24 09:52:49;;;;;;;4.15;1.85;;;22.40;99.90;;;;;;5004249;28;20030;-71
2023/07/24 09:55:29;;;;;;;8.43;1.90;;;22.60;99.90;;;;;;5004884;28;20033;-70
2023/07/24 09:57:56;;;;;;;4.45;1.17;;;22.80;99.90;;;;;;5005213;28;20042;-72
2023/07/24 10:00:22;;;;;;;2.95;1.67;;;22.80;99.90;;;;;;5004260;28;20049;-73
2023/07/24 10:02:48;;;;;;;5.53;1.80;;;22.90;99.90;;;;;;5005284;28;20395;-73
2023/07/24 10:05:15;;;;;;;7.03;1.92;;;22.70;99.90;;;;;;5005090;28;20034;-71
2023/07/24 10:07:41;;;;;;;7.40;1.58;;;22.60;99.90;;;;;;5003530;28;20030;-72
2023/07/24 10:10:08;;;;;;;15.55;1.60;;;22.40;99.90;;;;;;5004114;28;20038;-73
2023/07/24 10:12:34;;;;;;;7.82;2.30;;;22.30;99.90;;;;;;4999715;28;20034;-71
2023/07/24 10:15:01;;;;;;;5.75;1.67;;;22.60;99.90;;;;;;5004882;28;20042;-72
2023/07/24 10:17:41;;;;;;;6.38;1.50;;;22.80;99.90;;;;;;5002118;28;20030;-72
2023/07/24 10:20:08;;;;;;;5.70;1.60;;;23.20;99.90;;;;;;5002517;28;20407;-71
2023/07/24 10:22:35;;;;;;;7.13;1.92;;;23.40;99.90;;;;;;5003338;28;20034;-71
2023/07/24 10:25:01;;;;;;;5.90;1.90;;;23.30;99.90;;;;;;5004190;28;20042;-72
2023/07/24 10:27:28;;;;;;;4.68;1.95;;;23.10;99.90;;;;;;5002947;28;20034;-70
2023/07/24 10:30:04;;;;;;;4.60;1.40;;;23.10;99.90;;;;;;5004107;28;20108;-70
2023/07/24 10:32:30;;;;;;;4.68;1.73;;;23.30;99.90;;;;;;4999467;28;20048;-72
2023/07/24 10:35:09;;;;;;;5.75;2.22;;;23.50;99.90;;;;;;5003236;28;20034;-72
2023/07/24 10:37:36;;;;;;;3.45;1.88;;;23.60;99.90;;;;;;5002884;28;20695;-72
2023/07/24 10:40:04;;;;;;;5.43;1.45;;;23.60;99.90;;;;;;5003306;28;20112;-71
2023/07/24 10:42:30;;;;;;;5.82;1.73;;;23.70;99.90;;;;;;5000537;28;20081;-72
2023/07/24 10:45:07;;;;;;;4.57;1.48;;;24.00;99.90;;;;;;5004210;28;20046;-71
2023/07/24 10:47:33;;;;;;;4.78;1.67;;;23.90;99.90;;;;;;5001054;28;20144;-71
2023/07/24 10:50:00;;;;;;;5.43;1.70;;;23.90;99.90;;;;;;5002378;28;20038;-71
2023/07/24 10:52:33;;;;;;;3.72;1.73;;;23.80;99.90;;;;;;5002002;28;20518;-71
2023/07/24 10:55:02;;;;;;;4.03;1.40;;;23.60;99.90;;;;;;5002738;28;20476;-72
2023/07/24 10:57:29;;;;;;;6.97;1.98;;;23.60;99.90;;;;;;5001732;28;20042;-71
2023/07/24 10:59:55;;;;;;;4.63;1.73;;;23.70;99.90;;;;;;5004307;28;20040;-72
2023/07/24 11:02:21;;;;;;;4.75;1.70;;;23.70;99.90;;;;;;5002665;28;20038;-70
2023/07/24 11:04:47;;;;;;;4.20;1.65;;;23.80;99.90;;;;;;5002414;28;20121;-72
2023/07/24 11:07:13;;;;;;;4.43;1.88;;;23.70;99.90;;;;;;5002960;28;20034;-71
2023/07/24 11:09:46;;;;;;;5.70;1.90;;;23.70;99.90;;;;;;5000843;28;20498;-71
2023/07/24 11:12:13;;;;;;;3.58;1.50;;;23.60;99.90;;;;;;5002730;28;20529;-71
2023/07/24 11:14:55;;;;;;;4.65;1.50;;;23.70;99.90;;;;;;5002601;28;20068;-71
2023/07/24 11:17:21;;;;;;;4.25;1.70;;;23.80;99.90;;;;;;5001130;28;20030;-73
2023/07/24 11:19:47;;;;;;;4.82;1.77;;;24.00;99.90;;;;;;5001316;28;20034;-72
2023/07/24 11:22:14;;;;;;;5.68;2.13;;;24.20;99.90;;;;;;5001306;28;20045;-70
2023/07/24 11:24:44;;;;;;;6.75;1.42;;;24.30;99.90;;;;;;5001405;28;20080;-71
2023/07/24 11:27:13;;;;;;;7.50;2.38;;;24.50;99.90;;;;;;5002655;28;20029;-72
2023/07/24 11:29:39;;;;;;;8.88;1.48;;;24.60;99.90;;;;;;5002148;28;20033;-72
2023/07/24 11:32:05;;;;;;;3.13;1.35;;;24.80;99.90;;;;;;5003480;28;20030;-72
2023/07/24 11:34:31;;;;;;;5.75;1.55;;;24.90;99.90;;;;;;5002127;28;20084;-72
2023/07/24 11:36:56;;;;;;;3.70;1.48;;;24.80;99.90;;;;;;5003310;28;20036;-70
2023/07/24 11:39:25;;;;;;;2.85;1.15;;;24.40;99.90;;;;;;5003931;28;20038;-70
2023/07/24 11:41:51;;;;;;;4.63;1.98;;;24.00;99.90;;;;;;5000276;28;20036;-71
2023/07/24 11:44:27;;;;;;;5.07;1.33;;;23.80;99.90;;;;;;5003560;28;20109;-70
2023/07/24 11:47:01;;;;;;;3.90;1.10;;;24.00;99.90;;;;;;5002825;28;20046;-72
2023/07/24 11:49:27;;;;;;;4.22;1.65;;;24.10;99.90;;;;;;5005092;28;20037;-73
2023/07/24 11:51:58;;;;;;;6.97;1.92;;;24.20;99.90;;;;;;5007656;28;20064;-71
2023/07/24 11:54:24;;;;;;;4.38;1.67;;;24.10;99.90;;;;;;5003892;28;20892;-70
2023/07/24 11:56:50;;;;;;;4.28;1.35;;;23.80;99.90;;;;;;5006816;28;20061;-72
2023/07/24 11:59:15;;;;;;;5.60;1.80;;;23.60;99.90;;;;;;5005931;28;20491;-73
2023/07/24 12:01:45;;;;;;;5.00;1.85;;;23.50;99.90;;;;;;5006430;28;20038;-71
2023/07/24 12:04:10;;;;;;;11.45;2.42;;;23.30;99.90;;;;;;5004514;28;20034;-70
2023/07/24 12:06:37;;;;;;;6.70;1.70;;;23.10;99.90;;;;;;5006347;28;20045;-73
2023/07/24 12:09:05;;;;;;;7.55;2.55;;;22.70;99.90;;;;;;5007191;28;20466;-70
2023/07/24 12:11:31;;;;;;;5.32;2.47;;;22.40;99.90;;;;;;5006145;28;20069;-71
2023/07/24 12:13:57;;;;;;;5.57;2.28;;;22.10;99.90;;;;;;5006776;28;20057;-71
2023/07/24 12:16:23;;;;;;;6.82;2.22;;;21.60;99.90;;;;;;5007035;28;20470;-72
2023/07/24 12:18:48;;;;;;;7.43;2.42;;;21.20;99.90;;;;;;5006777;28;20029;-70
2023/07/24 12:21:14;;;;;;;6.07;2.80;;;20.80;99.90;;;;;;5006266;28;20057;-70
2023/07/24 12:23:39;;;;;;;8.57;2.90;;;20.40;99.90;;;;;;5006620;28;20029;-70
2023/07/24 12:26:05;;;;;;;4.88;2.58;;;20.20;99.90;;;;;;5005097;28;20560;-71
2023/07/24 12:28:30;;;;;;;5.63;2.83;;;19.90;99.90;;;;;;5006430;28;20458;-70
2023/07/24 12:30:56;;;;;;;6.53;2.95;;;19.70;99.90;;;;;;5006900;28;20134;-72
2023/07/24 12:33:24;;;;;;;7.00;3.33;;;19.60;99.90;;;;;;5004309;28;20069;-72
2023/07/24 12:35:51;;;;;;;4.53;2.65;;;19.50;99.90;;;;;;5002634;28;20121;-72
2023/07/24 12:38:16;;;;;;;6.85;2.58;;;19.50;99.90;;;;;;5004857;28;20030;-72
2023/07/24 12:40:42;;;;;;;6.95;2.85;;;19.50;99.90;;;;;;5001439;28;20680;-71
2023/07/24 12:43:08;;;;;;;8.88;3.33;;;19.60;99.90;;;;;;5005677;28;20049;-71
2023/07/24 12:45:33;;;;;;;5.50;2.95;;;19.60;99.90;;;;;;5005415;28;20034;-71